Ocean Highway — H3IE — position and weather

sailwx.info

Track history (hours):
 
Tides and Currents Weather Stations Pressure Air Temp Water Temp Dewpoint Dewpoint Depression Visibility Wind Speed Wind Dir Waves Ship Positions

Ocean Highway

Last reported at 2016-Apr-16 13:33 UTC. Time now 2016-May-06 11:11 UTC.
Position N 14°33' W 017°37'.
Warning: this ship's position is 19 days out of date.

Length 179.1 m; beam 32.2 m.

Type: Cargo ship. MMSI: 353951000.

Date/timePositionNaut miles runAvg speedWind from/ knotsBaromVisibWave heightAir tempDewpointWater temp
2016-Apr-16 13:33N 14°33' W 017°37'1616.0
2016-Apr-16 12:32N 14°49' W 017°38'77215.9
2016-Apr-14 12:08N 27°29' W 015°13'915.7
2016-Apr-14 11:33N 27°38' W 015°12'1615.9
2016-Apr-14 10:33N 27°53' W 015°06'1615.9
2016-Apr-14 09:33N 28°08' W 014°60'1615.6
2016-Apr-14 08:33N 28°23' W 014°54'1515.3
2016-Apr-14 07:33N 28°38' W 014°49'1916.2
2016-Apr-14 06:24N 28°56' W 014°44'  
2016-Apr-10 07:33N 49°43' W 003°34'1312.8
2016-Apr-10 06:33N 49°52' W 003°20'1414.0
2016-Apr-10 05:33N 49°57' W 002°60'1716.8
2016-Apr-10 04:33N 50°02' W 002°34'8617.3
2016-Apr-09 23:33N 50°24' W 000°24'1312.9
2016-Apr-09 22:33N 50°28' W 000°05'1312.6
2016-Apr-09 21:31N 50°33' E 000°14'1413.4
2016-Apr-09 20:27N 50°39' E 000°35'2216.1
2016-Apr-09 19:03N 50°52' E 001°04'816.8
2016-Apr-09 18:33N 50°57' E 001°14'1616.0
2016-Apr-09 17:33N 51°07' E 001°34'1413.9
2016-Apr-09 16:33N 51°17' E 001°50'1313.0
2016-Apr-09 15:33N 51°28' E 002°00'1312.9
2016-Apr-09 14:33N 51°38' E 002°14'12215.2
2016-Apr-09 06:33N 53°11' E 004°24'1413.6
2016-Apr-09 05:32N 53°23' E 004°33'1713.3
2016-Apr-09 04:16N 53°33' E 004°57'1216.0
2016-Apr-09 03:32N 53°37' E 005°15'1616.8
2016-Apr-09 02:34N 53°42' E 005°41'1514.6
2016-Apr-09 01:33N 53°44' E 006°06'1313.4
2016-Apr-09 00:33N 53°37' E 006°25'1413.7
2016-Apr-08 23:33N 53°31' E 006°46'1313.0
2016-Apr-08 22:34N 53°21' E 006°59'6 6.1
2016-Apr-08 21:34N 53°20' E 007°10'0 0.2
2016-Apr-08 20:31N 53°20' E 007°10'0 0.0
2016-Apr-08 19:31N 53°20' E 007°10'0 0.0
2016-Apr-08 18:31N 53°20' E 007°10'0 0.0
2016-Apr-08 17:31N 53°20' E 007°10'0 0.0
2016-Apr-08 16:31N 53°20' E 007°10'0 0.0
2016-Apr-08 15:31N 53°20' E 007°10'0 0.0
2016-Apr-08 14:31N 53°20' E 007°10'0 0.0
2016-Apr-08 13:31N 53°20' E 007°10'0 0.0
2016-Apr-08 12:31N 53°20' E 007°10'0 0.0
2016-Apr-08 11:31N 53°20' E 007°10'0 0.0
2016-Apr-08 10:31N 53°20' E 007°10'0 0.0
2016-Apr-08 09:31N 53°20' E 007°10'0 0.0
2016-Apr-08 08:31N 53°20' E 007°10'0 0.0
2016-Apr-08 07:31N 53°20' E 007°10'0 0.0
2016-Apr-08 06:31N 53°20' E 007°10'0 0.0
2016-Apr-08 05:31N 53°20' E 007°10'0 0.0
2016-Apr-08 04:31N 53°20' E 007°10'0 0.0
2016-Apr-08 03:31N 53°20' E 007°10'0 0.0
2016-Apr-08 02:31N 53°20' E 007°10'0 0.0
2016-Apr-08 01:31N 53°20' E 007°10'0 0.0
2016-Apr-08 00:29N 53°20' E 007°10'5 5.7
2016-Apr-07 23:33N 53°19' E 007°01'1414.5
2016-Apr-07 22:33N 53°31' E 006°46'1515.3
2016-Apr-07 21:33N 53°37' E 006°23'1111.0
2016-Apr-07 20:34N 53°48' E 006°21'1313.3
2016-Apr-07 19:33N 53°53' E 006°42'1413.5
2016-Apr-07 18:33N 53°55' E 007°05'1414.4
2016-Apr-07 17:33N 53°58' E 007°29'1312.8
2016-Apr-07 16:33N 53°53' E 007°49'1313.1
2016-Apr-07 15:34N 53°48' E 008°09'1716.9
2016-Apr-07 14:33N 53°36' E 008°30'4 3.5
2016-Apr-07 13:33N 53°34' E 008°34'0 0.4
2016-Apr-07 12:32N 53°34' E 008°34'0 0.0
2016-Apr-07 11:23N 53°34' E 008°34'0 0.0
2016-Apr-07 10:32N 53°34' E 008°34'0 0.0
2016-Apr-07 09:32N 53°34' E 008°34'0 0.0
2016-Apr-07 08:32N 53°34' E 008°34'0 0.0
2016-Apr-07 07:32N 53°34' E 008°34'0 0.0
2016-Apr-07 06:32N 53°34' E 008°34'0 0.0
2016-Apr-07 05:29N 53°34' E 008°34'0 0.0
2016-Apr-07 04:32N 53°34' E 008°34'0 0.0
2016-Apr-07 03:32N 53°34' E 008°34'0 0.0
2016-Apr-07 02:32N 53°34' E 008°34'0 0.0
2016-Apr-07 01:32N 53°34' E 008°34'0 0.0
2016-Apr-07 00:32N 53°34' E 008°34'0 0.0
2016-Apr-06 23:32N 53°34' E 008°34'0 0.0
2016-Apr-06 22:32N 53°34' E 008°34'0 0.0
2016-Apr-06 21:29N 53°34' E 008°34'0 0.0
2016-Apr-06 20:32N 53°34' E 008°34'0 0.0
2016-Apr-06 19:32N 53°34' E 008°34'0 0.0
2016-Apr-06 18:32N 53°34' E 008°34'0 0.0
2016-Apr-06 17:32N 53°34' E 008°34'0 0.0
2016-Apr-06 16:29N 53°34' E 008°34'0 0.0
2016-Apr-06 15:32N 53°34' E 008°34'0 0.0
2016-Apr-06 14:32N 53°34' E 008°34'  
Track history (hours):
 
Tides and Currents Weather Stations Pressure Air Temp Water Temp Dewpoint Dewpoint Depression Visibility Wind Speed Wind Dir Waves Ship Positions

Ocean Highway

Last reported at 2016-Apr-16 13:33 UTC. Time now 2016-May-06 11:11 UTC.
Position N 14°33' W 017°37'.
Warning: this ship's position is 19 days out of date.

Length 179.1 m; beam 32.2 m.

Type: Cargo ship. MMSI: 353951000.

Date/timePositionNaut miles runAvg speedWind from/ knotsBaromVisibWave heightAir tempDewpointWater temp
2016-Apr-16 13:33N 14°33' W 017°37'1616.0
2016-Apr-16 12:32N 14°49' W 017°38'77215.9
2016-Apr-14 12:08N 27°29' W 015°13'915.7
2016-Apr-14 11:33N 27°38' W 015°12'1615.9
2016-Apr-14 10:33N 27°53' W 015°06'1615.9
2016-Apr-14 09:33N 28°08' W 014°60'1615.6
2016-Apr-14 08:33N 28°23' W 014°54'1515.3
2016-Apr-14 07:33N 28°38' W 014°49'1916.2
2016-Apr-14 06:24N 28°56' W 014°44'  
2016-Apr-10 07:33N 49°43' W 003°34'1312.8
2016-Apr-10 06:33N 49°52' W 003°20'1414.0
2016-Apr-10 05:33N 49°57' W 002°60'1716.8
2016-Apr-10 04:33N 50°02' W 002°34'8617.3
2016-Apr-09 23:33N 50°24' W 000°24'1312.9
2016-Apr-09 22:33N 50°28' W 000°05'1312.6
2016-Apr-09 21:31N 50°33' E 000°14'1413.4
2016-Apr-09 20:27N 50°39' E 000°35'2216.1
2016-Apr-09 19:03N 50°52' E 001°04'816.8
2016-Apr-09 18:33N 50°57' E 001°14'1616.0
2016-Apr-09 17:33N 51°07' E 001°34'1413.9
2016-Apr-09 16:33N 51°17' E 001°50'1313.0
2016-Apr-09 15:33N 51°28' E 002°00'1312.9
2016-Apr-09 14:33N 51°38' E 002°14'12215.2
2016-Apr-09 06:33N 53°11' E 004°24'1413.6
2016-Apr-09 05:32N 53°23' E 004°33'1713.3
2016-Apr-09 04:16N 53°33' E 004°57'1216.0
2016-Apr-09 03:32N 53°37' E 005°15'1616.8
2016-Apr-09 02:34N 53°42' E 005°41'1514.6
2016-Apr-09 01:33N 53°44' E 006°06'1313.4
2016-Apr-09 00:33N 53°37' E 006°25'1413.7
2016-Apr-08 23:33N 53°31' E 006°46'1313.0
2016-Apr-08 22:34N 53°21' E 006°59'6 6.1
2016-Apr-08 21:34N 53°20' E 007°10'0 0.2
2016-Apr-08 20:31N 53°20' E 007°10'0 0.0
2016-Apr-08 19:31N 53°20' E 007°10'0 0.0
2016-Apr-08 18:31N 53°20' E 007°10'0 0.0
2016-Apr-08 17:31N 53°20' E 007°10'0 0.0
2016-Apr-08 16:31N 53°20' E 007°10'0 0.0
2016-Apr-08 15:31N 53°20' E 007°10'0 0.0
2016-Apr-08 14:31N 53°20' E 007°10'0 0.0
2016-Apr-08 13:31N 53°20' E 007°10'0 0.0
2016-Apr-08 12:31N 53°20' E 007°10'0 0.0
2016-Apr-08 11:31N 53°20' E 007°10'0 0.0
2016-Apr-08 10:31N 53°20' E 007°10'0 0.0
2016-Apr-08 09:31N 53°20' E 007°10'0 0.0
2016-Apr-08 08:31N 53°20' E 007°10'0 0.0
2016-Apr-08 07:31N 53°20' E 007°10'0 0.0
2016-Apr-08 06:31N 53°20' E 007°10'0 0.0
2016-Apr-08 05:31N 53°20' E 007°10'0 0.0
2016-Apr-08 04:31N 53°20' E 007°10'0 0.0
2016-Apr-08 03:31N 53°20' E 007°10'0 0.0
2016-Apr-08 02:31N 53°20' E 007°10'0 0.0
2016-Apr-08 01:31N 53°20' E 007°10'0 0.0
2016-Apr-08 00:29N 53°20' E 007°10'5 5.7
2016-Apr-07 23:33N 53°19' E 007°01'1414.5
2016-Apr-07 22:33N 53°31' E 006°46'1515.3
2016-Apr-07 21:33N 53°37' E 006°23'1111.0
2016-Apr-07 20:34N 53°48' E 006°21'1313.3
2016-Apr-07 19:33N 53°53' E 006°42'1413.5
2016-Apr-07 18:33N 53°55' E 007°05'1414.4
2016-Apr-07 17:33N 53°58' E 007°29'1312.8
2016-Apr-07 16:33N 53°53' E 007°49'1313.1
2016-Apr-07 15:34N 53°48' E 008°09'1716.9
2016-Apr-07 14:33N 53°36' E 008°30'4 3.5
2016-Apr-07 13:33N 53°34' E 008°34'0 0.4
2016-Apr-07 12:32N 53°34' E 008°34'0 0.0
2016-Apr-07 11:23N 53°34' E 008°34'0 0.0
2016-Apr-07 10:32N 53°34' E 008°34'0 0.0
2016-Apr-07 09:32N 53°34' E 008°34'0 0.0
2016-Apr-07 08:32N 53°34' E 008°34'0 0.0
2016-Apr-07 07:32N 53°34' E 008°34'0 0.0
2016-Apr-07 06:32N 53°34' E 008°34'0 0.0
2016-Apr-07 05:29N 53°34' E 008°34'0 0.0
2016-Apr-07 04:32N 53°34' E 008°34'0 0.0
2016-Apr-07 03:32N 53°34' E 008°34'0 0.0
2016-Apr-07 02:32N 53°34' E 008°34'0 0.0
2016-Apr-07 01:32N 53°34' E 008°34'0 0.0
2016-Apr-07 00:32N 53°34' E 008°34'0 0.0
2016-Apr-06 23:32N 53°34' E 008°34'0 0.0
2016-Apr-06 22:32N 53°34' E 008°34'0 0.0
2016-Apr-06 21:29N 53°34' E 008°34'0 0.0
2016-Apr-06 20:32N 53°34' E 008°34'0 0.0
2016-Apr-06 19:32N 53°34' E 008°34'0 0.0
2016-Apr-06 18:32N 53°34' E 008°34'0 0.0
2016-Apr-06 17:32N 53°34' E 008°34'0 0.0
2016-Apr-06 16:29N 53°34' E 008°34'0 0.0
2016-Apr-06 15:32N 53°34' E 008°34'0 0.0
2016-Apr-06 14:32N 53°34' E 008°34'  

Dump ship's entire track history